sensor_id;sensor_type;location;lat;lon;timestamp;pressure;altitude;pressure_sealevel;temperature;humidity
26489;BME280;14169;43.684;10.484;2023-04-08T00:00:15;101374.00;;;9.98;100.00
26489;BME280;14169;43.684;10.484;2023-04-08T00:02:41;101367.88;;;10.02;100.00
26489;BME280;14169;43.684;10.484;2023-04-08T00:05:07;101364.41;;;10.02;100.00
26489;BME280;14169;43.684;10.484;2023-04-08T00:07:33;101364.41;;;10.02;100.00
26489;BME280;14169;43.684;10.484;2023-04-08T00:09:59;101372.19;;;10.03;100.00
26489;BME280;14169;43.684;10.484;2023-04-08T00:12:24;101361.78;;;10.02;100.00
26489;BME280;14169;43.684;10.484;2023-04-08T00:14:50;101368.81;;;9.98;100.00
26489;BME280;14169;43.684;10.484;2023-04-08T00:17:15;101360.16;;;9.96;100.00
26489;BME280;14169;43.684;10.484;2023-04-08T00:19:42;101362.81;;;9.95;100.00
26489;BME280;14169;43.684;10.484;2023-04-08T00:22:07;101358.47;;;9.95;100.00
26489;BME280;14169;43.684;10.484;2023-04-08T00:24:33;101355.00;;;9.95;100.00
26489;BME280;14169;43.684;10.484;2023-04-08T00:26:58;101358.47;;;9.94;100.00
26489;BME280;14169;43.684;10.484;2023-04-08T00:29:24;101361.13;;;9.92;100.00
26489;BME280;14169;43.684;10.484;2023-04-08T00:31:49;101351.63;;;9.91;100.00
26489;BME280;14169;43.684;10.484;2023-04-08T00:34:15;101350.75;;;9.91;100.00
26489;BME280;14169;43.684;10.484;2023-04-08T00:36:41;101348.09;;;9.92;100.00
26489;BME280;14169;43.684;10.484;2023-04-08T00:39:06;101343.81;;;9.91;100.00
26489;BME280;14169;43.684;10.484;2023-04-08T00:41:33;101341.19;;;9.91;100.00
26489;BME280;14169;43.684;10.484;2023-04-08T00:44:00;101341.09;;;9.96;100.00
26489;BME280;14169;43.684;10.484;2023-04-08T00:46:25;101334.09;;;9.98;100.00
26489;BME280;14169;43.684;10.484;2023-04-08T00:48:51;101334.06;;;10.01;100.00
26489;BME280;14169;43.684;10.484;2023-04-08T00:51:17;101332.31;;;10.01;100.00
26489;BME280;14169;43.684;10.484;2023-04-08T00:53:43;101328.84;;;10.01;100.00
26489;BME280;14169;43.684;10.484;2023-04-08T00:56:08;101329.72;;;10.00;100.00
26489;BME280;14169;43.684;10.484;2023-04-08T00:58:34;101329.72;;;10.01;100.00
26489;BME280;14169;43.684;10.484;2023-04-08T01:01:09;101326.28;;;9.99;100.00
26489;BME280;14169;43.684;10.484;2023-04-08T01:08:59;101320.13;;;10.03;100.00
26489;BME280;14169;43.684;10.484;2023-04-08T01:11:31;101317.50;;;10.05;100.00
26489;BME280;14169;43.684;10.484;2023-04-08T01:14:01;101315.72;;;10.07;100.00
26489;BME280;14169;43.684;10.484;2023-04-08T01:16:30;101316.72;;;10.01;100.00
26489;BME280;14169;43.684;10.484;2023-04-08T01:18:56;101332.28;;;10.03;100.00
26489;BME280;14169;43.684;10.484;2023-04-08T01:21:22;101311.47;;;10.03;100.00
26489;BME280;14169;43.684;10.484;2023-04-08T01:24:08;101329.72;;;10.01;100.00
26489;BME280;14169;43.684;10.484;2023-04-08T01:26:36;101321.00;;;10.02;100.00
26489;BME280;14169;43.684;10.484;2023-04-08T01:29:03;101326.22;;;10.02;100.00
26489;BME280;14169;43.684;10.484;2023-04-08T01:31:30;101335.75;;;10.03;100.00
26489;BME280;14169;43.684;10.484;2023-04-08T01:33:56;101319.31;;;10.00;100.00
26489;BME280;14169;43.684;10.484;2023-04-08T01:36:23;101327.13;;;10.01;100.00
26489;BME280;14169;43.684;10.484;2023-04-08T01:38:50;101335.84;;;9.99;100.00
26489;BME280;14169;43.684;10.484;2023-04-08T01:41:17;101331.50;;;9.99;100.00
26489;BME280;14169;43.684;10.484;2023-04-08T01:43:43;101328.97;;;9.95;100.00
26489;BME280;14169;43.684;10.484;2023-04-08T01:46:10;101333.31;;;9.94;100.00
26489;BME280;14169;43.684;10.484;2023-04-08T01:48:37;101328.13;;;9.94;100.00
26489;BME280;14169;43.684;10.484;2023-04-08T01:51:03;101325.50;;;9.94;100.00
26489;BME280;14169;43.684;10.484;2023-04-08T01:53:29;101330.72;;;9.94;100.00
26489;BME280;14169;43.684;10.484;2023-04-08T01:56:00;101329.84;;;9.94;100.00
26489;BME280;14169;43.684;10.484;2023-04-08T01:58:28;101334.19;;;9.95;100.00
26489;BME280;14169;43.684;10.484;2023-04-08T02:00:56;101328.97;;;9.95;100.00
26489;BME280;14169;43.684;10.484;2023-04-08T02:03:24;101321.22;;;9.92;100.00
26489;BME280;14169;43.684;10.484;2023-04-08T02:05:51;101319.56;;;9.89;100.00
26489;BME280;14169;43.684;10.484;2023-04-08T02:08:17;101331.75;;;9.86;100.00
26489;BME280;14169;43.684;10.484;2023-04-08T02:10:42;101326.56;;;9.84;100.00
26489;BME280;14169;43.684;10.484;2023-04-08T02:13:07;101323.16;;;9.84;100.00
26489;BME280;14169;43.684;10.484;2023-04-08T02:15:35;101317.03;;;9.85;100.00
26489;BME280;14169;43.684;10.484;2023-04-08T02:18:11;101319.72;;;9.80;100.00
26489;BME280;14169;43.684;10.484;2023-04-08T02:20:47;101317.19;;;9.77;100.00
26489;BME280;14169;43.684;10.484;2023-04-08T02:23:18;101313.69;;;9.80;100.00
26489;BME280;14169;43.684;10.484;2023-04-08T02:25:44;101296.47;;;9.73;100.00
26489;BME280;14169;43.684;10.484;2023-04-08T02:28:11;101311.28;;;9.69;100.00
26489;BME280;14169;43.684;10.484;2023-04-08T02:30:42;101293.97;;;9.67;100.00
26489;BME280;14169;43.684;10.484;2023-04-08T02:33:08;101307.06;;;9.62;100.00
26489;BME280;14169;43.684;10.484;2023-04-08T02:35:35;101304.53;;;9.59;100.00
26489;BME280;14169;43.684;10.484;2023-04-08T02:38:01;101312.38;;;9.58;100.00
26489;BME280;14169;43.684;10.484;2023-04-08T02:40:29;101301.13;;;9.56;100.00
26489;BME280;14169;43.684;10.484;2023-04-08T02:42:55;101316.75;;;9.56;100.00
26489;BME280;14169;43.684;10.484;2023-04-08T02:45:21;101312.34;;;9.59;100.00
26489;BME280;14169;43.684;10.484;2023-04-08T02:47:47;101327.00;;;9.63;100.00
26489;BME280;14169;43.684;10.484;2023-04-08T02:50:12;101333.03;;;9.65;100.00
26489;BME280;14169;43.684;10.484;2023-04-08T02:52:38;101336.38;;;9.70;100.00
26489;BME280;14169;43.684;10.484;2023-04-08T02:55:04;101345.09;;;9.69;100.00
26489;BME280;14169;43.684;10.484;2023-04-08T02:57:35;101341.59;;;9.70;100.00
26489;BME280;14169;43.684;10.484;2023-04-08T03:00:04;101340.66;;;9.74;100.00
26489;BME280;14169;43.684;10.484;2023-04-08T03:02:30;101349.25;;;9.79;100.00
26489;BME280;14169;43.684;10.484;2023-04-08T03:04:55;101352.69;;;9.81;100.00
26489;BME280;14169;43.684;10.484;2023-04-08T03:07:21;101351.78;;;9.82;100.00
26489;BME280;14169;43.684;10.484;2023-04-08T03:09:46;101346.75;;;9.73;100.00
26489;BME280;14169;43.684;10.484;2023-04-08T03:12:12;101358.03;;;9.74;100.00
26489;BME280;14169;43.684;10.484;2023-04-08T03:14:37;101363.19;;;9.75;100.00
26489;BME280;14169;43.684;10.484;2023-04-08T03:17:02;101364.03;;;9.77;100.00
26489;BME280;14169;43.684;10.484;2023-04-08T03:19:28;101363.13;;;9.80;100.00
26489;BME280;14169;43.684;10.484;2023-04-08T03:21:53;101360.56;;;9.77;100.00
26489;BME280;14169;43.684;10.484;2023-04-08T03:24:18;101362.44;;;9.69;100.00
26489;BME280;14169;43.684;10.484;2023-04-08T03:26:44;101363.22;;;9.74;100.00
26489;BME280;14169;43.684;10.484;2023-04-08T03:29:09;101356.25;;;9.76;100.00
26489;BME280;14169;43.684;10.484;2023-04-08T03:31:35;101372.69;;;9.78;100.00
26489;BME280;14169;43.684;10.484;2023-04-08T03:34:00;101363.13;;;9.80;100.00
26489;BME280;14169;43.684;10.484;2023-04-08T03:36:26;101352.72;;;9.78;100.00
26489;BME280;14169;43.684;10.484;2023-04-08T03:38:51;101358.81;;;9.77;100.00
26489;BME280;14169;43.684;10.484;2023-04-08T03:41:17;101364.06;;;9.74;100.00
26489;BME280;14169;43.684;10.484;2023-04-08T03:43:42;101378.00;;;9.70;100.00
26489;BME280;14169;43.684;10.484;2023-04-08T03:46:08;101371.16;;;9.68;100.00
26489;BME280;14169;43.684;10.484;2023-04-08T03:48:33;101385.06;;;9.65;100.00
26489;BME280;14169;43.684;10.484;2023-04-08T03:50:59;101378.19;;;9.61;100.00
26489;BME280;14169;43.684;10.484;2023-04-08T03:53:24;101369.59;;;9.56;100.00
26489;BME280;14169;43.684;10.484;2023-04-08T03:55:52;101374.91;;;9.50;100.00
26489;BME280;14169;43.684;10.484;2023-04-08T03:58:17;101361.13;;;9.45;100.00
26489;BME280;14169;43.684;10.484;2023-04-08T04:00:43;101368.16;;;9.40;100.00
26489;BME280;14169;43.684;10.484;2023-04-08T04:03:08;101369.97;;;9.35;100.00
26489;BME280;14169;43.684;10.484;2023-04-08T04:05:37;101378.66;;;9.34;100.00
26489;BME280;14169;43.684;10.484;2023-04-08T04:08:03;101384.75;;;9.33;100.00
26489;BME280;14169;43.684;10.484;2023-04-08T04:10:28;101395.13;;;9.35;100.00
26489;BME280;14169;43.684;10.484;2023-04-08T04:12:54;101392.53;;;9.33;100.00
26489;BME280;14169;43.684;10.484;2023-04-08T04:15:19;101392.56;;;9.32;100.00
26489;BME280;14169;43.684;10.484;2023-04-08T04:17:47;101388.28;;;9.29;100.00
26489;BME280;14169;43.684;10.484;2023-04-08T04:20:14;101388.28;;;9.29;100.00
26489;BME280;14169;43.684;10.484;2023-04-08T04:22:39;101383.91;;;9.31;100.00
26489;BME280;14169;43.684;10.484;2023-04-08T04:25:05;101389.03;;;9.34;100.00
26489;BME280;14169;43.684;10.484;2023-04-08T04:27:31;101385.50;;;9.38;100.00
26489;BME280;14169;43.684;10.484;2023-04-08T04:29:56;101393.31;;;9.40;100.00
26489;BME280;14169;43.684;10.484;2023-04-08T04:32:22;101390.72;;;9.38;100.00
26489;BME280;14169;43.684;10.484;2023-04-08T04:34:47;101395.03;;;9.39;100.00
26489;BME280;14169;43.684;10.484;2023-04-08T04:37:12;101391.53;;;9.42;100.00
26489;BME280;14169;43.684;10.484;2023-04-08T04:39:38;101389.78;;;9.42;100.00
26489;BME280;14169;43.684;10.484;2023-04-08T04:42:03;101402.78;;;9.44;100.00
26489;BME280;14169;43.684;10.484;2023-04-08T04:44:28;101401.00;;;9.44;100.00
26489;BME280;14169;43.684;10.484;2023-04-08T04:46:54;101397.47;;;9.48;100.00
26489;BME280;14169;43.684;10.484;2023-04-08T04:49:20;101410.50;;;9.47;100.00
26489;BME280;14169;43.684;10.484;2023-04-08T04:51:45;101414.88;;;9.45;100.00
26489;BME280;14169;43.684;10.484;2023-04-08T04:54:11;101406.28;;;9.41;100.00
26489;BME280;14169;43.684;10.484;2023-04-08T04:56:36;101416.72;;;9.38;100.00
26489;BME280;14169;43.684;10.484;2023-04-08T04:59:02;101420.22;;;9.37;100.00
26489;BME280;14169;43.684;10.484;2023-04-08T05:01:29;101430.66;;;9.36;100.00
26489;BME280;14169;43.684;10.484;2023-04-08T05:03:54;101428.88;;;9.36;100.00
26489;BME280;14169;43.684;10.484;2023-04-08T05:06:22;101418.50;;;9.35;100.00
26489;BME280;14169;43.684;10.484;2023-04-08T05:08:47;101426.38;;;9.32;100.00
26489;BME280;14169;43.684;10.484;2023-04-08T05:11:13;101429.88;;;9.29;100.00
26489;BME280;14169;43.684;10.484;2023-04-08T05:13:38;101427.25;;;9.31;100.00
26489;BME280;14169;43.684;10.484;2023-04-08T05:16:04;101435.94;;;9.30;100.00
26489;BME280;14169;43.684;10.484;2023-04-08T05:18:29;101431.66;;;9.26;100.00
26489;BME280;14169;43.684;10.484;2023-04-08T05:20:55;101427.31;;;9.26;100.00
26489;BME280;14169;43.684;10.484;2023-04-08T05:23:20;101426.38;;;9.30;100.00
26489;BME280;14169;43.684;10.484;2023-04-08T05:25:45;101422.94;;;9.30;100.00
26489;BME280;14169;43.684;10.484;2023-04-08T05:28:11;101429.91;;;9.28;100.00
26489;BME280;14169;43.684;10.484;2023-04-08T05:30:36;101422.09;;;9.28;100.00
26489;BME280;14169;43.684;10.484;2023-04-08T05:33:02;101429.91;;;9.26;100.00
26489;BME280;14169;43.684;10.484;2023-04-08T05:35:28;101427.31;;;9.26;100.00
26489;BME280;14169;43.684;10.484;2023-04-08T05:37:55;101422.22;;;9.20;100.00
26489;BME280;14169;43.684;10.484;2023-04-08T05:40:20;101430.06;;;9.17;100.00
26489;BME280;14169;43.684;10.484;2023-04-08T05:42:46;101433.56;;;9.14;100.00
26489;BME280;14169;43.684;10.484;2023-04-08T05:45:11;101426.63;;;9.15;100.00
26489;BME280;14169;43.684;10.484;2023-04-08T05:47:37;101433.56;;;9.14;100.00
26489;BME280;14169;43.684;10.484;2023-04-08T05:50:02;101439.63;;;9.15;100.00
26489;BME280;14169;43.684;10.484;2023-04-08T05:52:29;101437.03;;;9.15;100.00
26489;BME280;14169;43.684;10.484;2023-04-08T05:54:54;101443.94;;;9.17;100.00
26489;BME280;14169;43.684;10.484;2023-04-08T05:57:20;101445.63;;;9.20;100.00
26489;BME280;14169;43.684;10.484;2023-04-08T05:59:45;101447.31;;;9.22;100.00
26489;BME280;14169;43.684;10.484;2023-04-08T06:02:10;101448.97;;;9.27;100.00
26489;BME280;14169;43.684;10.484;2023-04-08T06:04:36;101456.72;;;9.31;100.00
26489;BME280;14169;43.684;10.484;2023-04-08T06:07:01;101460.09;;;9.36;100.00
26489;BME280;14169;43.684;10.484;2023-04-08T06:09:28;101462.66;;;9.39;100.00
26489;BME280;14169;43.684;10.484;2023-04-08T06:11:53;101459.13;;;9.43;100.00
26489;BME280;14169;43.684;10.484;2023-04-08T06:14:18;101465.09;;;9.48;100.00
26489;BME280;14169;43.684;10.484;2023-04-08T06:16:45;101460.63;;;9.58;100.00
26489;BME280;14169;43.684;10.484;2023-04-08T06:19:10;101469.19;;;9.63;100.00
26489;BME280;14169;43.684;10.484;2023-04-08T06:21:36;101470.88;;;9.67;100.00
26489;BME280;14169;43.684;10.484;2023-04-08T06:24:01;101473.34;;;9.74;100.00
26489;BME280;14169;43.684;10.484;2023-04-08T06:26:27;101473.25;;;9.80;100.00
26489;BME280;14169;43.684;10.484;2023-04-08T06:28:52;101476.53;;;9.91;100.00
26489;BME280;14169;43.684;10.484;2023-04-08T06:31:18;101476.44;;;9.97;100.00
26489;BME280;14169;43.684;10.484;2023-04-08T06:33:43;101482.41;;;10.02;100.00
26489;BME280;14169;43.684;10.484;2023-04-08T06:36:09;101478.09;;;10.01;100.00
26489;BME280;14169;43.684;10.484;2023-04-08T06:38:34;101483.19;;;10.07;100.00
26489;BME280;14169;43.684;10.484;2023-04-08T06:41:07;101477.00;;;10.13;100.00
26489;BME280;14169;43.684;10.484;2023-04-08T06:43:34;101486.44;;;10.19;100.00
26489;BME280;14169;43.684;10.484;2023-04-08T06:45:59;101487.09;;;10.31;100.00
26489;BME280;14169;43.684;10.484;2023-04-08T06:48:25;101481.09;;;10.26;100.00
26489;BME280;14169;43.684;10.484;2023-04-08T06:50:58;101484.44;;;10.33;100.00
26489;BME280;14169;43.684;10.484;2023-04-08T06:53:24;101482.63;;;10.38;100.00
26489;BME280;14169;43.684;10.484;2023-04-08T06:55:50;101479.06;;;10.42;100.00
26489;BME280;14169;43.684;10.484;2023-04-08T06:58:16;101491.81;;;10.54;100.00
26489;BME280;14169;43.684;10.484;2023-04-08T07:00:41;101486.56;;;10.58;100.00
26489;BME280;14169;43.684;10.484;2023-04-08T07:03:07;101493.50;;;10.59;100.00
26489;BME280;14169;43.684;10.484;2023-04-08T07:05:36;101490.88;;;10.61;100.00
26489;BME280;14169;43.684;10.484;2023-04-08T07:08:03;101495.84;;;10.73;100.00
26489;BME280;14169;43.684;10.484;2023-04-08T07:10:28;101500.13;;;10.75;100.00
26489;BME280;14169;43.684;10.484;2023-04-08T07:12:54;101496.53;;;10.81;100.00
26489;BME280;14169;43.684;10.484;2023-04-08T07:15:19;101504.28;;;10.84;100.00
26489;BME280;14169;43.684;10.484;2023-04-08T07:17:45;101503.38;;;10.86;100.00
26489;BME280;14169;43.684;10.484;2023-04-08T07:20:12;101504.97;;;10.93;100.00
26489;BME280;14169;43.684;10.484;2023-04-08T07:22:41;101514.31;;;11.02;100.00
26489;BME280;14169;43.684;10.484;2023-04-08T07:25:06;101510.72;;;11.09;100.00
26489;BME280;14169;43.684;10.484;2023-04-08T07:27:33;101510.34;;;11.24;100.00
26489;BME280;14169;43.684;10.484;2023-04-08T07:29:58;101506.69;;;11.33;100.00
26489;BME280;14169;43.684;10.484;2023-04-08T07:32:23;101496.16;;;11.36;100.00
26489;BME280;14169;43.684;10.484;2023-04-08T07:34:49;101497.63;;;11.49;100.00
26489;BME280;14169;43.684;10.484;2023-04-08T07:37:14;101507.53;;;11.70;100.00
26489;BME280;14169;43.684;10.484;2023-04-08T07:39:40;101506.63;;;11.72;100.00
26489;BME280;14169;43.684;10.484;2023-04-08T07:42:05;101511.22;;;11.63;100.00
26489;BME280;14169;43.684;10.484;2023-04-08T07:44:31;101513.72;;;11.67;100.00
26489;BME280;14169;43.684;10.484;2023-04-08T07:46:56;101511.97;;;11.66;100.00
26489;BME280;14169;43.684;10.484;2023-04-08T07:49:21;101512.47;;;11.82;100.00
26489;BME280;14169;43.684;10.484;2023-04-08T07:51:47;101514.81;;;11.94;100.00
26489;BME280;14169;43.684;10.484;2023-04-08T07:54:12;101516.28;;;12.04;100.00
26489;BME280;14169;43.684;10.484;2023-04-08T07:56:44;101524.94;;;12.06;100.00
26489;BME280;14169;43.684;10.484;2023-04-08T07:59:10;101515.03;;;12.19;100.00
26489;BME280;14169;43.684;10.484;2023-04-08T08:01:36;101520.97;;;12.25;100.00
26489;BME280;14169;43.684;10.484;2023-04-08T08:04:02;101524.91;;;12.41;100.00
26489;BME280;14169;43.684;10.484;2023-04-08T08:06:28;101518.00;;;12.39;100.00
26489;BME280;14169;43.684;10.484;2023-04-08T08:08:53;101527.63;;;12.37;100.00
26489;BME280;14169;43.684;10.484;2023-04-08T08:11:18;101524.59;;;12.52;100.00
26489;BME280;14169;43.684;10.484;2023-04-08T08:13:45;101529.59;;;12.59;100.00
26489;BME280;14169;43.684;10.484;2023-04-08T08:16:11;101530.47;;;12.60;100.00
26489;BME280;14169;43.684;10.484;2023-04-08T08:18:37;101532.00;;;12.98;100.00
26489;BME280;14169;43.684;10.484;2023-04-08T08:21:04;101542.84;;;13.13;100.00
26489;BME280;14169;43.684;10.484;2023-04-08T08:23:30;101538.28;;;13.23;100.00
26489;BME280;14169;43.684;10.484;2023-04-08T08:26:06;101536.41;;;13.26;100.00
26489;BME280;14169;43.684;10.484;2023-04-08T08:28:32;101540.69;;;13.29;100.00
26489;BME280;14169;43.684;10.484;2023-04-08T08:30:57;101540.41;;;13.38;100.00
26489;BME280;14169;43.684;10.484;2023-04-08T08:33:24;101531.84;;;13.61;100.00
26489;BME280;14169;43.684;10.484;2023-04-08T08:35:50;101535.16;;;13.66;100.00
26489;BME280;14169;43.684;10.484;2023-04-08T08:38:16;101532.47;;;13.69;100.00
26489;BME280;14169;43.684;10.484;2023-04-08T08:40:42;101531.69;;;13.93;100.00
26489;BME280;14169;43.684;10.484;2023-04-08T08:43:09;101531.47;;;13.99;100.00
26489;BME280;14169;43.684;10.484;2023-04-08T08:45:44;101537.72;;;14.21;100.00
26489;BME280;14169;43.684;10.484;2023-04-08T08:48:09;101548.28;;;14.44;100.00
26489;BME280;14169;43.684;10.484;2023-04-08T08:50:35;101549.00;;;14.48;100.00
26489;BME280;14169;43.684;10.484;2023-04-08T08:53:01;101547.50;;;14.65;100.00
26489;BME280;14169;43.684;10.484;2023-04-08T08:55:32;101551.72;;;14.69;100.00
26489;BME280;14169;43.684;10.484;2023-04-08T08:58:02;101550.41;;;14.82;100.00
26489;BME280;14169;43.684;10.484;2023-04-08T09:00:36;101551.09;;;15.10;100.00
26489;BME280;14169;43.684;10.484;2023-04-08T09:05:56;101572.13;;;15.55;100.00
26489;BME280;14169;43.684;10.484;2023-04-08T09:08:32;101564.72;;;15.65;100.00
26489;BME280;14169;43.684;10.484;2023-04-08T09:11:12;101569.72;;;15.49;100.00
26489;BME280;14169;43.684;10.484;2023-04-08T09:13:38;101574.97;;;15.49;100.00
26489;BME280;14169;43.684;10.484;2023-04-08T09:16:05;101565.81;;;15.61;100.00
26489;BME280;14169;43.684;10.484;2023-04-08T09:18:32;101570.97;;;15.62;100.00
26489;BME280;14169;43.684;10.484;2023-04-08T09:20:59;101569.13;;;15.43;100.00
26489;BME280;14169;43.684;10.484;2023-04-08T09:26:16;101563.16;;;16.04;100.00
26489;BME280;14169;43.684;10.484;2023-04-08T09:28:43;101563.44;;;16.38;100.00
26489;BME280;14169;43.684;10.484;2023-04-08T09:31:23;101559.72;;;16.64;100.00
26489;BME280;14169;43.684;10.484;2023-04-08T09:33:49;101558.59;;;16.69;100.00
26489;BME280;14169;43.684;10.484;2023-04-08T09:36:16;101557.41;;;16.76;100.00
26489;BME280;14169;43.684;10.484;2023-04-08T09:38:42;101555.84;;;16.91;100.00
26489;BME280;14169;43.684;10.484;2023-04-08T09:41:12;101548.31;;;17.21;100.00
26489;BME280;14169;43.684;10.484;2023-04-08T09:43:42;101545.53;;;17.44;100.00
26489;BME280;14169;43.684;10.484;2023-04-08T09:46:13;101553.22;;;17.84;100.00
26489;BME280;14169;43.684;10.484;2023-04-08T09:48:45;101544.53;;;17.99;100.00
26489;BME280;14169;43.684;10.484;2023-04-08T09:51:15;101541.09;;;18.33;100.00
26489;BME280;14169;43.684;10.484;2023-04-08T09:53:46;101549.00;;;18.50;100.00
26489;BME280;14169;43.684;10.484;2023-04-08T09:56:13;101546.63;;;18.78;100.00
26489;BME280;14169;43.684;10.484;2023-04-08T09:58:46;101547.94;;;19.02;100.00
26489;BME280;14169;43.684;10.484;2023-04-08T10:01:13;101548.50;;;19.09;100.00
26489;BME280;14169;43.684;10.484;2023-04-08T10:03:48;101546.72;;;19.09;100.00
26489;BME280;14169;43.684;10.484;2023-04-08T10:06:14;101548.03;;;19.01;100.00
26489;BME280;14169;43.684;10.484;2023-04-08T10:08:41;101548.34;;;19.12;100.00
26489;BME280;14169;43.684;10.484;2023-04-08T10:11:07;101546.25;;;19.50;100.00
26489;BME280;14169;43.684;10.484;2023-04-08T10:13:32;101536.47;;;19.97;100.00
26489;BME280;14169;43.684;10.484;2023-04-08T10:16:18;101544.19;;;20.15;100.00
26489;BME280;14169;43.684;10.484;2023-04-08T10:18:47;101538.19;;;20.28;100.00
26489;BME280;14169;43.684;10.484;2023-04-08T10:21:37;101544.31;;;20.28;100.00
26489;BME280;14169;43.684;10.484;2023-04-08T10:24:10;101548.22;;;20.51;91.90
26489;BME280;14169;43.684;10.484;2023-04-08T10:26:38;101546.03;;;20.73;86.56
26489;BME280;14169;43.684;10.484;2023-04-08T10:31:41;101538.56;;;21.08;79.91
26489;BME280;14169;43.684;10.484;2023-04-08T10:36:42;101536.44;;;21.27;75.87
26489;BME280;14169;43.684;10.484;2023-04-08T10:39:08;101528.72;;;21.50;74.63
26489;BME280;14169;43.684;10.484;2023-04-08T10:41:34;101539.81;;;21.83;73.90
26489;BME280;14169;43.684;10.484;2023-04-08T10:44:02;101528.50;;;22.07;67.92
26489;BME280;14169;43.684;10.484;2023-04-08T10:46:28;101524.06;;;22.20;63.77
26489;BME280;14169;43.684;10.484;2023-04-08T10:49:00;101526.69;;;21.95;62.26
26489;BME280;14169;43.684;10.484;2023-04-08T10:51:31;101526.66;;;21.41;58.87
26489;BME280;14169;43.684;10.484;2023-04-08T10:54:08;101523.44;;;20.95;56.83
26489;BME280;14169;43.684;10.484;2023-04-08T10:56:35;101524.72;;;20.88;62.45
26489;BME280;14169;43.684;10.484;2023-04-08T10:59:00;101532.56;;;21.04;60.96
26489;BME280;14169;43.684;10.484;2023-04-08T11:01:26;101535.28;;;20.60;63.30
26489;BME280;14169;43.684;10.484;2023-04-08T11:03:52;101523.91;;;20.30;67.84
26489;BME280;14169;43.684;10.484;2023-04-08T11:06:17;101517.97;;;19.97;67.06
26489;BME280;14169;43.684;10.484;2023-04-08T11:08:44;101524.03;;;19.83;70.55
26489;BME280;14169;43.684;10.484;2023-04-08T11:11:10;101542.97;;;19.91;73.29
26489;BME280;14169;43.684;10.484;2023-04-08T11:13:39;101537.72;;;20.35;88.10
26489;BME280;14169;43.684;10.484;2023-04-08T11:16:05;101528.81;;;20.36;89.68
26489;BME280;14169;43.684;10.484;2023-04-08T11:18:33;101527.50;;;19.99;97.33
26489;BME280;14169;43.684;10.484;2023-04-08T11:20:59;101526.91;;;19.79;94.75
26489;BME280;14169;43.684;10.484;2023-04-08T11:23:26;101515.69;;;19.75;96.60
26489;BME280;14169;43.684;10.484;2023-04-08T11:25:51;101518.59;;;19.55;98.64
26489;BME280;14169;43.684;10.484;2023-04-08T11:28:17;101513.41;;;20.29;99.96
26489;BME280;14169;43.684;10.484;2023-04-08T11:30:43;101511.75;;;20.70;96.39
26489;BME280;14169;43.684;10.484;2023-04-08T11:33:09;101507.00;;;21.17;91.59
26489;BME280;14169;43.684;10.484;2023-04-08T11:35:39;101512.78;;;21.64;88.59
26489;BME280;14169;43.684;10.484;2023-04-08T11:38:06;101509.22;;;21.78;81.47
26489;BME280;14169;43.684;10.484;2023-04-08T11:40:32;101510.88;;;21.93;80.88
26489;BME280;14169;43.684;10.484;2023-04-08T11:42:57;101517.72;;;21.56;83.05
26489;BME280;14169;43.684;10.484;2023-04-08T11:45:23;101508.28;;;21.79;83.40
26489;BME280;14169;43.684;10.484;2023-04-08T11:47:48;101508.16;;;21.13;79.80
26489;BME280;14169;43.684;10.484;2023-04-08T11:50:24;101512.25;;;21.59;86.91
26489;BME280;14169;43.684;10.484;2023-04-08T11:52:51;101501.19;;;21.39;86.23
26489;BME280;14169;43.684;10.484;2023-04-08T11:55:27;101502.19;;;21.24;87.65
26489;BME280;14169;43.684;10.484;2023-04-08T11:57:54;101510.78;;;21.27;87.66
26489;BME280;14169;43.684;10.484;2023-04-08T12:00:21;101498.63;;;20.82;87.55
26489;BME280;14169;43.684;10.484;2023-04-08T12:02:47;101494.75;;;20.60;90.46
26489;BME280;14169;43.684;10.484;2023-04-08T12:05:16;101490.91;;;21.20;91.29
26489;BME280;14169;43.684;10.484;2023-04-08T12:07:42;101495.38;;;21.46;85.89
26489;BME280;14169;43.684;10.484;2023-04-08T12:10:09;101490.66;;;21.11;83.87
26489;BME280;14169;43.684;10.484;2023-04-08T12:12:35;101490.84;;;21.48;83.86
26489;BME280;14169;43.684;10.484;2023-04-08T12:15:01;101490.78;;;20.95;89.37
26489;BME280;14169;43.684;10.484;2023-04-08T12:17:26;101491.75;;;21.21;85.16
26489;BME280;14169;43.684;10.484;2023-04-08T12:19:52;101479.25;;;21.63;86.86
26489;BME280;14169;43.684;10.484;2023-04-08T12:22:17;101479.72;;;22.22;79.61
26489;BME280;14169;43.684;10.484;2023-04-08T12:24:42;101485.47;;;21.89;74.84
26489;BME280;14169;43.684;10.484;2023-04-08T12:27:08;101484.78;;;22.12;73.62
26489;BME280;14169;43.684;10.484;2023-04-08T12:29:33;101481.59;;;21.41;75.36
26489;BME280;14169;43.684;10.484;2023-04-08T12:31:59;101479.56;;;21.45;77.95
26489;BME280;14169;43.684;10.484;2023-04-08T12:34:24;101477.00;;;21.17;80.73
26489;BME280;14169;43.684;10.484;2023-04-08T12:36:50;101476.56;;;21.51;78.83
26489;BME280;14169;43.684;10.484;2023-04-08T12:39:15;101471.03;;;21.80;76.17
26489;BME280;14169;43.684;10.484;2023-04-08T12:41:41;101478.94;;;22.20;73.50
26489;BME280;14169;43.684;10.484;2023-04-08T12:44:06;101475.94;;;21.60;67.01
26489;BME280;14169;43.684;10.484;2023-04-08T12:46:32;101468.84;;;21.34;67.58
26489;BME280;14169;43.684;10.484;2023-04-08T12:48:57;101461.53;;;21.64;72.55